Time;durP1;ratioP1;P1;durP2;ratioP2;P2;SDS_P1;SDS_P2;PMS_P1;PMS_P2;Temp;Humidity;BMP_temperature;BMP_pressure;BME280_temperature;BME280_humidity;BME280_pressure;Samples;Min_cycle;Max_cycle;Signal;HPM_P1;HPM_P2
2022/12/24 00:00:11;;;;;;;2.25;1.50;;;;;;;3.01;100.00;92254.94;5077130;28;20037;-79
2022/12/24 00:02:36;;;;;;;2.22;1.55;;;;;;;3.00;100.00;92239.69;5059302;28;20047;-79
2022/12/24 00:05:02;;;;;;;2.47;1.58;;;;;;;3.01;100.00;92259.34;5077000;28;20020;-79
2022/12/24 00:11:22;;;;;;;4.47;1.50;;;;;;;3.01;100.00;92260.13;5076252;28;20460;-79
2022/12/24 00:17:42;;;;;;;2.35;1.48;;;;;;;2.92;100.00;92256.41;5076653;28;20054;-79
2022/12/24 00:20:47;;;;;;;2.28;1.40;;;;;;;2.88;100.00;92257.91;5076441;28;20036;-78
2022/12/24 00:23:13;;;;;;;1.92;1.48;;;;;;;2.87;100.00;92287.41;5075873;28;20031;-79
2022/12/24 00:25:38;;;;;;;3.60;1.58;;;;;;;2.88;100.00;92276.81;5076082;28;20024;-79
2022/12/24 00:31:58;;;;;;;1.98;1.40;;;;;;;2.88;100.00;92239.81;5056347;28;20422;-78
2022/12/24 00:35:03;;;;;;;1.88;1.40;;;;;;;2.99;100.00;92271.72;5038203;28;20472;-79
2022/12/24 00:37:29;;;;;;;3.00;1.50;;;;;;;3.00;100.00;92284.41;5055967;28;20542;-79
2022/12/24 00:39:54;;;;;;;2.30;1.50;;;;;;;2.99;100.00;92272.50;5021258;28;20130;-79
2022/12/24 00:42:58;;;;;;;2.58;1.58;;;;;;;2.97;100.00;92264.19;5056543;28;20160;-79
2022/12/24 00:45:26;;;;;;;2.78;1.50;;;;;;;2.92;100.00;92259.00;5055711;28;20033;-79
2022/12/24 00:47:52;;;;;;;2.83;1.60;;;;;;;2.89;100.00;92272.41;5055434;28;20033;-78
2022/12/24 00:53:43;;;;;;;2.47;1.58;;;;;;;2.79;100.00;92257.59;5037671;28;20091;-79
2022/12/24 00:56:08;;;;;;;2.67;1.75;;;;;;;2.79;100.00;92305.91;5055381;28;20037;-79
2022/12/24 00:59:13;;;;;;;3.55;1.83;;;;;;;2.75;100.00;92320.34;5056096;28;20029;-78
2022/12/24 01:01:39;;;;;;;2.30;1.50;;;;;;;2.70;100.00;92316.69;5037819;28;20037;-79
2022/12/24 01:07:23;;;;;;;2.63;1.70;;;;;;;2.87;100.00;92282.22;5055623;28;20067;-79
2022/12/24 01:09:48;;;;;;;4.57;2.53;;;;;;;3.00;100.00;92309.50;5055633;28;20379;-79
2022/12/24 01:12:14;;;;;;;4.00;2.45;;;;;;;2.95;100.00;92301.69;5021787;28;20040;-79
2022/12/24 01:18:34;;;;;;;3.80;2.40;;;;;;;2.96;100.00;92323.94;5056221;28;20071;-78
2022/12/24 01:21:02;;;;;;;3.80;2.40;;;;;;;2.89;100.00;92355.16;5038585;28;20033;-79
2022/12/24 01:23:29;;;;;;;4.65;2.63;;;;;;;2.80;100.00;92348.84;5059972;28;20075;-79
2022/12/24 01:25:59;;;;;;;4.93;3.08;;;;;;;2.76;100.00;92335.63;5041937;28;20033;-79
2022/12/24 01:31:54;;;;;;;5.57;3.10;;;;;;;2.63;100.00;92341.16;5078304;28;20060;-79
2022/12/24 01:34:20;;;;;;;4.93;2.85;;;;;;;2.60;100.00;92320.97;5079144;28;20044;-79
2022/12/24 01:36:46;;;;;;;5.38;3.00;;;;;;;2.58;100.00;92310.09;5079630;28;20107;-79
2022/12/24 01:39:12;;;;;;;5.35;3.30;;;;;;;2.54;100.00;92294.25;5079054;28;20036;-78
2022/12/24 01:45:32;;;;;;;4.22;2.33;;;;;;;2.47;100.00;92250.53;5079142;28;20102;-78
2022/12/24 01:47:57;;;;;;;4.15;2.55;;;;;;;2.75;100.00;92271.22;5079297;28;20535;-79
2022/12/24 01:50:23;;;;;;;5.18;2.90;;;;;;;2.73;100.00;92260.38;5078948;28;20051;-79
2022/12/24 01:53:26;;;;;;;3.88;2.72;;;;;;;2.73;100.00;92270.72;5079288;28;20426;-79
2022/12/24 01:55:52;;;;;;;3.80;2.60;;;;;;;2.69;100.00;92294.44;5061099;28;20479;-78
2022/12/24 01:58:21;;;;;;;4.20;2.55;;;;;;;2.64;100.00;92278.88;5078944;28;20397;-79
2022/12/24 02:00:48;;;;;;;4.40;2.60;;;;;;;2.65;100.00;92277.84;5060991;28;20056;-79
2022/12/24 02:03:14;;;;;;;3.80;2.50;;;;;;;2.66;100.00;92300.09;5078708;28;20032;-79
2022/12/24 02:05:58;;;;;;;4.38;2.60;;;;;;;2.62;100.00;92309.34;5078731;28;20508;-79
2022/12/24 02:12:18;;;;;;;3.70;2.45;;;;;;;2.63;100.00;92299.78;5078690;28;20043;-78
2022/12/24 02:15:21;;;;;;;3.63;2.42;;;;;;;2.63;100.00;92305.75;5078366;28;20047;-78
2022/12/24 02:18:08;;;;;;;3.92;2.40;;;;;;;2.60;100.00;92290.72;5078345;28;20395;-79
2022/12/24 02:21:21;;;;;;;4.05;2.42;;;;;;;2.54;100.00;92296.84;5077788;28;20046;-78
2022/12/24 02:23:58;;;;;;;3.65;2.20;;;;;;;2.50;100.00;92286.22;5077430;28;20235;-78
2022/12/24 02:26:43;;;;;;;3.05;1.92;;;;;;;2.50;100.00;92285.47;5058143;28;20445;-77
2022/12/24 02:29:42;;;;;;;3.03;1.92;;;;;;;2.47;100.00;92302.19;5076122;28;20039;-78
2022/12/24 02:32:14;;;;;;;3.90;2.15;;;;;;;2.47;100.00;92304.00;5074127;28;20383;-77
2022/12/24 02:34:45;;;;;;;3.17;2.00;;;;;;;2.44;100.00;92301.91;5074563;28;20443;-78
2022/12/24 02:37:49;;;;;;;2.90;1.85;;;;;;;2.47;100.00;92301.44;5058230;28;20372;-78
2022/12/24 02:40:21;;;;;;;3.20;1.98;;;;;;;2.51;100.00;92302.50;5074836;28;20375;-77
2022/12/24 02:42:53;;;;;;;3.05;2.00;;;;;;;2.53;100.00;92289.34;5057806;28;20383;-77
2022/12/24 02:45:29;;;;;;;3.13;1.80;;;;;;;2.52;100.00;92304.06;5076056;28;20123;-77
2022/12/24 02:48:00;;;;;;;2.28;1.50;;;;;;;2.55;100.00;92313.94;5076129;28;20036;-77
2022/12/24 02:50:26;;;;;;;2.78;1.80;;;;;;;2.58;100.00;92312.66;5075786;28;20036;-77
2022/12/24 02:52:51;;;;;;;2.67;1.90;;;;;;;2.56;100.00;92319.88;5075500;28;20035;-78
2022/12/24 02:55:39;;;;;;;2.17;1.55;;;;;;;2.59;100.00;92330.53;5057511;28;20041;-78
2022/12/24 02:58:38;;;;;;;2.65;1.58;;;;;;;2.55;100.00;92311.34;5057868;28;20032;-78
2022/12/24 03:01:35;;;;;;;2.80;1.65;;;;;;;2.54;100.00;92317.53;5075726;28;20033;-78
2022/12/24 03:04:20;;;;;;;2.50;1.63;;;;;;;2.53;100.00;92315.97;5075639;28;20036;-78
2022/12/24 03:06:50;;;;;;;2.30;1.50;;;;;;;2.53;100.00;92313.38;5073743;28;20024;-77
2022/12/24 03:09:35;;;;;;;2.80;1.70;;;;;;;2.57;100.00;92306.72;5073655;28;20137;-77
2022/12/24 03:12:08;;;;;;;2.80;1.50;;;;;;;2.55;100.00;92303.59;5073719;28;20028;-78
2022/12/24 03:14:35;;;;;;;1.63;1.30;;;;;;;2.59;100.00;92309.84;5074939;28;20118;-78
2022/12/24 03:17:03;;;;;;;2.35;1.35;;;;;;;2.56;100.00;92289.63;5057452;28;20029;-78
2022/12/24 03:19:30;;;;;;;2.67;1.50;;;;;;;2.54;100.00;92285.75;5074798;28;20036;-78
2022/12/24 03:21:58;;;;;;;2.63;1.50;;;;;;;2.53;100.00;92290.13;5074939;28;20478;-77
2022/12/24 03:24:23;;;;;;;2.20;1.50;;;;;;;2.53;100.00;92297.13;5075279;28;20111;-78
2022/12/24 03:26:51;;;;;;;2.20;1.45;;;;;;;2.50;100.00;92291.41;5056738;28;20521;-77
2022/12/24 03:29:17;;;;;;;2.63;1.50;;;;;;;2.52;100.00;92278.22;5040177;28;20417;-77
2022/12/24 03:31:48;;;;;;;1.92;1.40;;;;;;;2.50;100.00;92281.06;5059802;28;20057;-78
2022/12/24 03:34:33;;;;;;;2.20;1.42;;;;;;;2.50;100.00;92294.00;5036903;28;20060;-78
2022/12/24 03:37:00;;;;;;;2.63;1.50;;;;;;;2.49;100.00;92289.03;5020460;28;20513;-77
2022/12/24 03:39:26;;;;;;;1.70;1.30;;;;;;;2.48;100.00;92277.16;5036882;28;20028;-78
2022/12/24 03:41:51;;;;;;;2.42;1.55;;;;;;;2.52;100.00;92273.06;5053832;28;20049;-79
2022/12/24 03:44:18;;;;;;;2.10;1.50;;;;;;;2.55;100.00;92254.50;5020184;28;20037;-78
2022/12/24 03:46:44;;;;;;;2.28;1.55;;;;;;;2.54;100.00;92250.34;5054730;28;20025;-77
2022/12/24 03:49:29;;;;;;;2.10;1.45;;;;;;;2.53;100.00;92273.84;5054496;28;20116;-78
2022/12/24 03:51:54;;;;;;;3.08;1.52;;;;;;;2.48;100.00;92261.66;5054321;28;20033;-78
2022/12/24 03:54:20;;;;;;;2.03;1.40;;;;;;;2.43;100.00;92254.63;5054837;28;20033;-77
2022/12/24 03:56:46;;;;;;;1.90;1.35;;;;;;;2.42;100.00;92241.94;5054835;28;20045;-78
2022/12/24 03:59:12;;;;;;;1.65;1.30;;;;;;;2.44;100.00;92250.25;5037320;28;20044;-77
2022/12/24 04:01:37;;;;;;;2.03;1.45;;;;;;;2.45;100.00;92249.22;5061858;28;20078;-77
2022/12/24 04:04:40;;;;;;;2.65;1.50;;;;;;;2.43;100.00;92241.72;5067616;28;20032;-77
2022/12/24 04:07:06;;;;;;;1.80;1.25;;;;;;;2.44;100.00;92240.69;5064884;28;20029;-79
2022/12/24 04:09:32;;;;;;;2.00;1.40;;;;;;;2.47;100.00;92239.41;5054201;28;20501;-78
2022/12/24 04:11:59;;;;;;;1.98;1.35;;;;;;;2.48;100.00;92226.25;5054058;28;20032;-78
2022/12/24 04:14:25;;;;;;;2.42;1.50;;;;;;;2.74;100.00;92233.50;5053668;28;20064;-77
2022/12/24 04:16:50;;;;;;;2.22;1.60;;;;;;;2.75;100.00;92245.38;5053551;28;20025;-78
2022/12/24 04:19:17;;;;;;;2.83;1.60;;;;;;;2.71;100.00;92255.44;5053685;28;20055;-78
2022/12/24 04:21:43;;;;;;;2.35;1.60;;;;;;;2.63;100.00;92254.03;5036704;28;20509;-79
2022/12/24 04:24:08;;;;;;;2.45;1.60;;;;;;;2.60;100.00;92249.38;5036314;28;20037;-78
2022/12/24 04:27:11;;;;;;;2.15;1.50;;;;;;;2.55;100.00;92241.56;5054097;28;20040;-78
2022/12/24 04:29:37;;;;;;;2.13;1.40;;;;;;;2.51;100.00;92258.59;5054209;28;20041;-78
2022/12/24 04:32:03;;;;;;;2.65;1.70;;;;;;;2.50;100.00;92264.78;5053847;28;20551;-78
2022/12/24 04:34:28;;;;;;;2.50;1.70;;;;;;;2.45;100.00;92280.22;5036135;28;20056;-78
2022/12/24 04:37:31;;;;;;;2.28;1.40;;;;;;;2.41;100.00;92267.00;5053808;28;20041;-78
2022/12/24 04:39:56;;;;;;;2.90;1.70;;;;;;;2.43;100.00;92275.31;5053947;28;20029;-78
2022/12/24 04:42:22;;;;;;;2.40;1.42;;;;;;;2.42;100.00;92265.19;5053808;28;20095;-78
2022/12/24 04:45:27;;;;;;;1.80;1.30;;;;;;;2.46;100.00;92279.97;5053688;28;20116;-78
2022/12/24 04:47:53;;;;;;;;;;;;;;;2.49;100.00;92270.97;5054325;28;20069;-77
2022/12/24 04:50:58;;;;;;;2.15;1.30;;;;;;;2.48;100.00;92272.78;5053842;28;19913;-78
2022/12/24 04:53:23;;;;;;;2.10;1.20;;;;;;;2.47;100.00;92276.34;5053679;28;20028;-78
2022/12/24 04:55:49;;;;;;;1.40;1.20;;;;;;;2.46;100.00;92264.47;5054189;28;20388;-78
2022/12/24 04:58:15;;;;;;;1.77;1.20;;;;;;;2.43;100.00;92259.00;5057698;28;20474;-78
2022/12/24 05:00:40;;;;;;;2.03;1.30;;;;;;;2.41;100.00;92271.38;5057663;28;20175;-78
2022/12/24 05:03:06;;;;;;;3.28;1.30;;;;;;;2.39;100.00;92273.44;5057473;28;20067;-77
2022/12/24 05:05:31;;;;;;;2.22;1.38;;;;;;;2.28;100.00;92269.94;5039625;28;20029;-78
2022/12/24 05:07:57;;;;;;;1.60;1.27;;;;;;;2.34;100.00;92281.13;5057941;28;20557;-78
2022/12/24 05:10:42;;;;;;;2.08;1.35;;;;;;;2.34;100.00;92276.72;5023552;28;20036;-79
2022/12/24 05:13:08;;;;;;;1.98;1.40;;;;;;;2.34;100.00;92263.81;5057164;28;20041;-78
2022/12/24 05:15:34;;;;;;;2.63;1.60;;;;;;;2.39;100.00;92283.78;5023349;28;20036;-78
2022/12/24 05:18:19;;;;;;;1.42;1.20;;;;;;;2.40;100.00;92269.81;5039848;28;20119;-78
2022/12/24 05:20:46;;;;;;;1.98;1.40;;;;;;;2.39;100.00;92260.53;5057689;28;20045;-78
2022/12/24 05:28:58;;;;;;;;;;;;;;;2.35;100.00;92267.19;5070187;28;19916;-78
2022/12/24 05:31:28;;;;;;;1.65;1.20;;;;;;;2.33;100.00;92266.66;5074232;28;20282;-78
2022/12/24 05:33:54;;;;;;;2.38;1.30;;;;;;;2.35;100.00;92277.53;5043122;28;20055;-77
2022/12/24 05:36:20;;;;;;;2.90;1.60;;;;;;;2.36;100.00;92292.00;5059016;28;20036;-79
2022/12/24 05:38:47;;;;;;;2.13;1.48;;;;;;;2.35;100.00;92293.03;5058739;28;20123;-79
2022/12/24 05:41:13;;;;;;;1.52;1.38;;;;;;;2.34;100.00;92288.88;5076864;28;20142;-78
2022/12/24 05:43:38;;;;;;;1.73;1.30;;;;;;;2.33;100.00;92285.50;5058604;28;20024;-78
2022/12/24 05:46:06;;;;;;;2.08;1.50;;;;;;;2.34;100.00;92286.28;5076959;28;20067;-78
2022/12/24 05:48:32;;;;;;;1.67;1.30;;;;;;;2.31;100.00;92281.59;5076638;28;20455;-78
2022/12/24 05:50:58;;;;;;;2.03;1.50;;;;;;;2.29;100.00;92295.53;5076590;28;20411;-78
2022/12/24 05:53:24;;;;;;;2.38;1.50;;;;;;;2.33;100.00;92295.84;5059182;28;20135;-78
2022/12/24 05:55:50;;;;;;;2.20;1.50;;;;;;;2.33;100.00;92274.41;5059079;28;20107;-78
2022/12/24 05:58:16;;;;;;;2.42;1.58;;;;;;;2.35;100.00;92256.84;5058974;28;20075;-77
2022/12/24 06:01:01;;;;;;;3.35;1.50;;;;;;;2.44;100.00;92265.75;5058848;28;20039;-78
2022/12/24 06:03:26;;;;;;;1.98;1.40;;;;;;;2.42;100.00;92262.63;5076054;28;20363;-78
2022/12/24 06:06:02;;;;;;;2.70;1.55;;;;;;;2.38;100.00;92272.63;5076588;28;20036;-78
2022/12/24 06:08:49;;;;;;;2.05;1.40;;;;;;;2.35;100.00;92262.03;5075295;28;20052;-78
2022/12/24 06:11:17;;;;;;;3.15;1.65;;;;;;;2.35;100.00;92254.28;5058575;28;20040;-78
2022/12/24 06:13:43;;;;;;;1.88;1.48;;;;;;;2.33;100.00;92266.66;5075798;28;20028;-77
2022/12/24 06:16:12;;;;;;;2.53;1.50;;;;;;;2.34;100.00;92256.06;5075816;28;20120;-77
2022/12/24 06:18:38;;;;;;;1.20;1.10;;;;;;;2.34;100.00;92250.13;5056867;28;20028;-77
2022/12/24 06:21:04;;;;;;;2.92;1.40;;;;;;;2.37;100.00;92275.47;5074935;28;20460;-78
2022/12/24 06:23:33;;;;;;;2.13;1.42;;;;;;;2.33;100.00;92274.41;5075965;28;20048;-77
2022/12/24 06:26:00;;;;;;;1.65;1.40;;;;;;;2.33;100.00;92267.41;5076193;28;20552;-78
2022/12/24 06:28:30;;;;;;;1.48;1.20;;;;;;;2.31;100.00;92281.59;5073500;28;20495;-77
2022/12/24 06:31:00;;;;;;;1.60;1.20;;;;;;;2.28;100.00;92281.06;5075974;28;20048;-78
2022/12/24 06:33:26;;;;;;;1.38;1.20;;;;;;;2.29;100.00;92280.03;5075776;28;20544;-78
2022/12/24 06:35:52;;;;;;;1.70;1.30;;;;;;;2.28;100.00;92273.31;5075820;28;20029;-79
2022/12/24 06:38:37;;;;;;;1.67;1.30;;;;;;;2.29;100.00;92281.84;5075294;28;20420;-78
2022/12/24 06:41:07;;;;;;;1.92;1.30;;;;;;;2.30;100.00;92278.25;5075670;28;20048;-79
2022/12/24 06:43:33;;;;;;;1.80;1.30;;;;;;;2.29;100.00;92280.03;5057895;28;20036;-81
2022/12/24 06:46:00;;;;;;;2.05;1.35;;;;;;;2.31;100.00;92287.53;5076096;28;20032;-80
2022/12/24 06:48:27;;;;;;;2.63;1.50;;;;;;;2.32;100.00;92271.03;5036813;28;20060;-81
2022/12/24 06:50:53;;;;;;;3.58;1.50;;;;;;;2.34;100.00;92266.38;5056735;28;20102;-79
2022/12/24 06:53:19;;;;;;;1.98;1.40;;;;;;;2.27;100.00;92261.44;5056107;28;20029;-84
2022/12/24 06:55:45;;;;;;;2.30;1.25;;;;;;;2.26;100.00;92272.75;5056136;28;20045;-81
2022/12/24 06:58:30;;;;;;;1.65;1.23;;;;;;;2.22;100.00;92263.94;5054771;28;20107;-81
2022/12/24 07:00:56;;;;;;;1.60;1.30;;;;;;;2.25;100.00;92270.41;5055394;28;20091;-80
2022/12/24 07:03:41;;;;;;;2.38;1.60;;;;;;;2.26;100.00;92262.44;5055129;28;20032;-80
2022/12/24 07:06:15;;;;;;;2.17;1.40;;;;;;;2.20;100.00;92255.63;5055250;28;20059;-81
2022/12/24 07:08:49;;;;;;;2.08;1.50;;;;;;;2.29;100.00;92277.44;5070766;28;20075;-79
2022/12/24 07:11:16;;;;;;;1.95;1.40;;;;;;;2.31;100.00;92286.78;5057613;28;20458;-80
2022/12/24 07:17:36;;;;;;;1.80;1.40;;;;;;;2.36;100.00;92294.56;5075428;28;20055;-80
2022/12/24 07:20:22;;;;;;;1.92;1.48;;;;;;;2.42;100.00;92303.97;5056647;28;20127;-81
2022/12/24 07:22:48;;;;;;;2.50;1.63;;;;;;;2.43;100.00;92313.25;5075190;28;20036;-82
2022/12/24 07:25:32;;;;;;;2.35;1.52;;;;;;;2.56;100.00;92327.63;5074969;28;20048;-80
2022/12/24 07:28:00;;;;;;;2.67;1.58;;;;;;;2.60;100.00;92320.97;5075197;28;20091;-81
2022/12/24 07:30:25;;;;;;;2.55;1.63;;;;;;;2.78;100.00;92322.47;5057303;28;20410;-80
2022/12/24 07:32:51;;;;;;;2.40;1.60;;;;;;;2.92;100.00;92313.28;5074875;28;20039;-80
2022/12/24 07:35:19;;;;;;;2.15;1.42;;;;;;;2.98;100.00;92320.09;5074757;28;20044;-80
2022/12/24 07:37:44;;;;;;;2.83;1.60;;;;;;;3.02;100.00;92331.50;5075425;28;20036;-81
2022/12/24 07:40:47;;;;;;;2.50;1.50;;;;;;;3.06;100.00;92337.75;5075182;28;20039;-80
2022/12/24 07:43:32;;;;;;;4.57;1.67;;;;;;;3.18;100.00;92360.13;5074666;28;20394;-80
2022/12/24 07:45:58;;;;;;;2.08;1.45;;;;;;;3.25;100.00;92358.91;5074072;28;20033;-80
2022/12/24 07:49:02;;;;;;;2.25;1.50;;;;;;;3.38;100.00;92368.09;5050947;28;20079;-80
2022/12/24 07:51:27;;;;;;;1.85;1.40;;;;;;;3.45;100.00;92363.50;5056434;28;20037;-81
2022/12/24 07:53:53;;;;;;;2.13;1.50;;;;;;;3.61;100.00;92373.97;5030060;28;20044;-80
2022/12/24 07:56:19;;;;;;;2.50;1.60;;;;;;;3.80;100.00;92375.16;5036663;28;20035;-80
2022/12/24 07:58:44;;;;;;;2.72;1.63;;;;;;;3.91;100.00;92379.38;5054639;28;20446;-80
2022/12/24 08:01:10;;;;;;;2.72;1.60;;;;;;;4.03;100.00;92383.63;5054877;28;20048;-82
2022/12/24 08:03:36;;;;;;;2.28;1.50;;;;;;;4.09;100.00;92354.91;5054719;28;20180;-81
2022/12/24 08:06:02;;;;;;;3.10;1.70;;;;;;;4.20;100.00;92355.78;5034958;28;20045;-80
2022/12/24 08:08:28;;;;;;;2.13;1.50;;;;;;;4.43;100.00;92348.63;5055276;28;20037;-80
2022/12/24 08:11:00;;;;;;;3.10;1.70;;;;;;;4.68;100.00;92353.16;5035315;28;20510;-79
2022/12/24 08:13:26;;;;;;;3.03;1.75;;;;;;;4.84;100.00;92351.41;5054766;28;20048;-81
2022/12/24 08:15:51;;;;;;;2.83;1.60;;;;;;;4.91;100.00;92363.13;5026890;28;20028;-79
2022/12/24 08:18:17;;;;;;;2.67;1.67;;;;;;;5.12;100.00;92348.41;5054321;28;20029;-79
2022/12/24 08:20:43;;;;;;;3.25;1.80;;;;;;;5.13;100.00;92364.75;5051921;28;20130;-79
2022/12/24 08:23:08;;;;;;;3.72;1.90;;;;;;;5.26;100.00;92381.66;5014394;28;20049;-80
2022/12/24 08:25:34;;;;;;;3.20;1.90;;;;;;;5.54;100.00;92370.84;5054525;28;20035;-79
2022/12/24 08:28:00;;;;;;;3.40;2.10;;;;;;;5.76;100.00;92387.97;5051135;28;20414;-78
2022/12/24 08:30:25;;;;;;;3.58;2.33;;;;;;;6.10;100.00;92392.72;5042066;28;20039;-80
2022/12/24 08:32:51;;;;;;;3.72;2.67;;;;;;;6.16;100.00;92397.66;5032566;28;20110;-82
2022/12/24 08:35:16;;;;;;;3.60;2.40;;;;;;;6.11;100.00;92404.69;5053539;28;20076;-83
2022/12/24 08:37:42;;;;;;;3.25;2.00;;;;;;;5.87;100.00;92407.75;5043926;28;20025;-80
2022/12/24 08:40:08;;;;;;;3.45;2.22;;;;;;;5.81;100.00;92412.16;5054758;28;20095;-80
2022/12/24 08:42:34;;;;;;;3.70;2.30;;;;;;;5.90;100.00;92404.66;5054573;28;20041;-79
2022/12/24 08:44:59;;;;;;;3.83;2.10;;;;;;;6.21;100.00;92420.25;5070328;28;20036;-81
2022/12/24 08:47:26;;;;;;;3.80;2.70;;;;;;;6.36;100.00;92427.28;5058550;28;20025;-79
2022/12/24 08:49:51;;;;;;;3.50;2.20;;;;;;;6.56;100.00;92396.06;5036079;28;20091;-79
2022/12/24 08:52:17;;;;;;;3.33;2.22;;;;;;;6.55;100.00;92391.91;5042844;28;20091;-82
2022/12/24 08:54:42;;;;;;;2.42;1.80;;;;;;;7.31;100.00;92382.25;5053669;28;20557;-81
2022/12/24 08:57:08;;;;;;;4.53;2.50;;;;;;;7.44;100.00;92379.06;5037703;28;20037;-81
2022/12/24 08:59:33;;;;;;;3.60;2.40;;;;;;;7.74;100.00;92392.19;5066942;28;20041;-80
2022/12/24 09:02:00;;;;;;;3.20;2.10;;;;;;;8.84;100.00;92374.34;5076860;28;20028;-81
2022/12/24 09:04:26;;;;;;;3.80;2.40;;;;;;;9.50;99.04;92351.88;5067821;28;20076;-79
2022/12/24 09:06:51;;;;;;;3.50;2.30;;;;;;;9.77;93.84;92366.91;5038392;28;20068;-80
2022/12/24 09:09:17;;;;;;;2.78;1.83;;;;;;;10.03;89.61;92356.09;5054717;28;20029;-79
2022/12/24 09:11:44;;;;;;;3.85;2.58;;;;;;;10.27;91.69;92376.91;5054835;28;20039;-80
2022/12/24 09:14:10;;;;;;;3.72;2.50;;;;;;;10.74;90.27;92357.56;5053973;28;20037;-78
2022/12/24 09:16:35;;;;;;;3.92;2.40;;;;;;;11.31;88.57;92359.88;5052594;28;20641;-79
2022/12/24 09:19:01;;;;;;;3.63;2.50;;;;;;;12.40;81.93;92382.72;5067880;28;20159;-79
2022/12/24 09:21:27;;;;;;;4.28;2.45;;;;;;;13.04;74.98;92390.31;5039454;28;20041;-79
2022/12/24 09:23:52;;;;;;;3.67;2.40;;;;;;;14.02;74.32;92391.03;5016760;28;20116;-78
2022/12/24 09:26:25;;;;;;;3.17;2.10;;;;;;;14.94;66.61;92409.25;5039258;28;20554;-80
2022/12/24 09:28:51;;;;;;;;;;;;;;;14.40;64.12;92428.03;5054419;28;20120;-79
2022/12/24 09:31:17;;;;;;;3.53;2.03;;;;;;;13.90;67.54;92434.50;5054766;28;19919;-78
2022/12/24 09:33:45;;;;;;;3.17;1.95;;;;;;;13.81;65.61;92423.19;5060910;28;20140;-80
2022/12/24 09:36:11;;;;;;;3.42;2.10;;;;;;;12.53;71.99;92423.88;5050514;28;20098;-79
2022/12/24 09:38:39;;;;;;;3.60;2.08;;;;;;;11.80;72.54;92438.84;5060397;28;20475;-81
2022/12/24 09:41:21;;;;;;;3.75;2.35;;;;;;;12.60;74.65;92434.72;5058588;28;20113;-81
2022/12/24 09:43:52;;;;;;;3.10;2.00;;;;;;;12.23;71.69;92447.13;5051704;28;20033;-80
2022/12/24 09:46:34;;;;;;;4.25;2.30;;;;;;;12.25;74.60;92434.50;5056004;28;20056;-80
2022/12/24 09:49:15;;;;;;;3.60;2.10;;;;;;;13.20;72.87;92444.03;5056475;28;20032;-81
2022/12/24 09:51:46;;;;;;;3.00;2.00;;;;;;;13.68;67.44;92434.63;5054684;28;20029;-81
2022/12/24 09:54:29;;;;;;;3.50;2.08;;;;;;;14.08;64.06;92450.34;5037168;28;20383;-81
2022/12/24 09:56:59;;;;;;;3.47;2.05;;;;;;;13.23;65.90;92442.63;5048138;28;20047;-82
2022/12/24 09:59:38;;;;;;;3.67;2.35;;;;;;;13.00;67.52;92437.44;5057897;28;20410;-82
2022/12/24 10:02:10;;;;;;;2.97;1.88;;;;;;;12.43;67.95;92445.91;5057117;28;20033;-81
2022/12/24 10:04:36;;;;;;;3.72;2.55;;;;;;;11.13;76.36;92445.38;5057972;28;20041;-81
2022/12/24 10:07:10;;;;;;;2.95;1.75;;;;;;;10.72;77.11;92442.69;5048409;28;20070;-82
2022/12/24 10:09:49;;;;;;;3.50;2.13;;;;;;;10.22;80.60;92458.84;5059464;28;20474;-81
2022/12/24 10:13:00;;;;;;;4.07;2.25;;;;;;;10.21;81.92;92455.47;5057256;28;20056;-83
2022/12/24 10:15:45;;;;;;;3.40;2.42;;;;;;;10.35;80.53;92455.56;5039926;28;20472;-79
2022/12/24 10:18:26;;;;;;;3.70;2.10;;;;;;;10.80;78.84;92442.03;5026030;28;20498;-81
2022/12/24 10:21:15;;;;;;;4.18;2.50;;;;;;;10.75;78.36;92432.41;5049843;28;20167;-80
2022/12/24 10:23:50;;;;;;;3.53;2.20;;;;;;;10.26;81.49;92446.00;5071748;28;20083;-80
2022/12/24 10:26:39;;;;;;;4.82;2.63;;;;;;;10.73;79.82;92436.38;5054294;28;20028;-80
2022/12/24 10:29:12;;;;;;;5.20;2.65;;;;;;;10.28;81.64;92422.94;5050997;28;20029;-80
2022/12/24 10:32:09;;;;;;;3.90;2.50;;;;;;;10.83;79.05;92439.63;5061382;28;20039;-81
2022/12/24 10:34:41;;;;;;;4.05;2.50;;;;;;;10.41;81.08;92425.63;5049667;28;20096;-80
2022/12/24 10:37:15;;;;;;;4.20;2.70;;;;;;;11.42;76.22;92428.59;5057665;28;20041;-81
2022/12/24 10:39:41;;;;;;;3.97;2.50;;;;;;;11.32;75.43;92419.06;5057612;28;20525;-80
2022/12/24 10:42:08;;;;;;;4.20;2.72;;;;;;;10.57;79.04;92431.41;5058640;28;20506;-82
2022/12/24 10:44:33;;;;;;;4.90;2.80;;;;;;;10.16;80.22;92439.06;5056695;28;20503;-79
2022/12/24 10:46:59;;;;;;;4.22;2.55;;;;;;;10.27;82.82;92444.91;5064396;28;20040;-78
2022/12/24 10:49:35;;;;;;;4.07;2.60;;;;;;;10.32;80.19;92429.19;5056521;28;20029;-79
2022/12/24 10:52:23;;;;;;;3.75;2.40;;;;;;;12.21;74.65;92411.75;5057882;28;20518;-79
2022/12/24 10:55:10;;;;;;;3.30;2.17;;;;;;;12.54;71.63;92407.06;5054729;28;20048;-82
2022/12/24 10:57:37;;;;;;;3.25;2.20;;;;;;;12.27;70.63;92410.56;5046440;28;20116;-77
2022/12/24 11:00:05;;;;;;;3.92;2.53;;;;;;;11.33;73.26;92404.91;5063655;28;20037;-78
2022/12/24 11:02:33;;;;;;;3.58;2.50;;;;;;;11.31;75.49;92407.06;5060464;28;20124;-79
2022/12/24 11:05:02;;;;;;;3.75;2.63;;;;;;;11.50;76.61;92414.03;5037460;28;20406;-79
2022/12/24 11:07:29;;;;;;;4.13;2.50;;;;;;;11.07;75.64;92416.94;5056350;28;20041;-79
2022/12/24 11:10:00;;;;;;;4.25;2.30;;;;;;;10.81;76.45;92415.56;5031128;28;20488;-80
2022/12/24 11:12:34;;;;;;;4.07;2.60;;;;;;;10.69;78.86;92412.59;5036928;28;20041;-77
2022/12/24 11:15:00;;;;;;;4.03;2.72;;;;;;;10.51;79.54;92410.81;5073523;28;20252;-78
2022/12/24 11:17:26;;;;;;;3.80;2.50;;;;;;;10.49;80.35;92407.72;5057705;28;20423;-79
2022/12/24 11:20:22;;;;;;;4.07;2.53;;;;;;;10.40;80.81;92410.22;5038201;28;20045;-78
2022/12/24 11:22:49;;;;;;;4.85;2.60;;;;;;;10.02;83.63;92407.63;5037870;28;20032;-78
2022/12/24 11:25:33;;;;;;;4.90;2.50;;;;;;;9.99;83.50;92400.34;5037570;28;20137;-78
2022/12/24 11:28:17;;;;;;;3.53;2.55;;;;;;;10.47;81.51;92413.25;5066916;28;20059;-78
2022/12/24 11:30:54;;;;;;;3.95;2.50;;;;;;;10.37;82.34;92411.56;5074743;28;20037;-77
2022/12/24 11:33:21;;;;;;;4.18;2.50;;;;;;;10.52;80.94;92428.88;5074380;28;20035;-78
2022/12/24 11:35:53;;;;;;;4.32;2.28;;;;;;;10.94;78.56;92429.75;5074005;28;20029;-78
2022/12/24 11:38:21;;;;;;;3.53;2.17;;;;;;;10.75;76.25;92421.94;5074500;28;20060;-79
2022/12/24 11:41:08;;;;;;;3.65;2.15;;;;;;;10.97;77.32;92423.91;5048060;28;20045;-80
2022/12/24 11:43:52;;;;;;;3.22;2.10;;;;;;;10.62;78.60;92423.44;5039807;28;20113;-81
2022/12/24 11:49:28;;;;;;;3.60;2.10;;;;;;;10.77;77.82;92419.03;5056941;28;20033;-80
2022/12/24 11:52:16;;;;;;;3.10;2.00;;;;;;;11.01;77.75;92422.28;5038620;28;20111;-80
2022/12/24 11:55:04;;;;;;;4.00;2.05;;;;;;;11.48;75.57;92427.41;5039880;28;20044;-81
2022/12/24 11:57:49;;;;;;;3.63;2.00;;;;;;;11.72;75.17;92426.44;5039446;28;20029;-82
2022/12/24 12:00:15;;;;;;;3.72;1.90;;;;;;;11.90;72.57;92422.91;5038912;28;20409;-80
2022/12/24 12:02:46;;;;;;;3.10;1.90;;;;;;;11.82;73.69;92426.22;5037957;28;20071;-81
2022/12/24 12:05:18;;;;;;;4.10;2.40;;;;;;;11.71;72.57;92427.50;5054927;28;20060;-81
2022/12/24 12:07:48;;;;;;;3.55;2.45;;;;;;;11.41;74.38;92419.16;5039248;28;20176;-80
2022/12/24 12:10:25;;;;;;;4.25;2.80;;;;;;;11.13;76.45;92406.06;5021827;28;20040;-80
2022/12/24 12:13:04;;;;;;;4.38;2.67;;;;;;;10.49;79.12;92411.13;5055340;28;20041;-82
2022/12/24 12:15:39;;;;;;;5.63;3.17;;;;;;;10.65;79.68;92408.25;5042669;28;20035;-79
2022/12/24 12:18:12;;;;;;;4.07;2.80;;;;;;;10.53;79.53;92409.47;5059289;28;20076;-79
2022/12/24 12:20:39;;;;;;;3.90;2.70;;;;;;;10.52;80.10;92407.94;5052361;28;20032;-79
2022/12/24 12:23:26;;;;;;;4.05;2.75;;;;;;;10.37;80.79;92403.72;5052189;28;20032;-78
2022/12/24 12:25:54;;;;;;;4.00;2.80;;;;;;;10.36;80.85;92410.03;5051152;28;20029;-77
2022/12/24 12:28:30;;;;;;;3.72;2.72;;;;;;;10.83;80.12;92412.66;5059098;28;20040;-78
2022/12/24 12:31:08;;;;;;;4.25;2.83;;;;;;;10.99;79.19;92394.81;5072343;28;20068;-79
2022/12/24 12:33:40;;;;;;;4.45;2.78;;;;;;;11.11;77.73;92400.34;5068245;28;20509;-79
2022/12/24 12:36:08;;;;;;;4.22;3.00;;;;;;;10.84;78.17;92422.06;5066590;28;20090;-80
2022/12/24 12:38:34;;;;;;;3.65;2.50;;;;;;;10.87;78.58;92407.59;5056710;28;20462;-80
2022/12/24 12:41:39;;;;;;;4.18;2.53;;;;;;;10.79;78.19;92415.06;5058764;28;20032;-80
2022/12/24 12:44:19;;;;;;;4.07;2.70;;;;;;;10.60;79.89;92406.47;5064358;28;20036;-80